createdAt,value
2018-06-03T00:01:17.931Z,23.06
2018-06-03T00:02:55.142Z,23.15
2018-06-03T00:04:31.642Z,23.25
2018-06-03T00:06:08.373Z,23.31
2018-06-03T00:07:44.286Z,23.35
2018-06-03T00:09:20.258Z,23.33
2018-06-03T00:10:56.692Z,23.33
2018-06-03T00:12:33.575Z,23.37
2018-06-03T00:14:10.027Z,23.34
2018-06-03T00:15:46.309Z,23.38
2018-06-03T00:17:22.773Z,23.30
2018-06-03T00:18:59.726Z,23.29
2018-06-03T00:20:52.133Z,23.28
2018-06-03T00:22:32.912Z,23.00
2018-06-03T00:24:10.282Z,22.46
2018-06-03T00:25:46.629Z,22.02
2018-06-03T00:27:23.035Z,21.87
2018-06-03T00:28:59.343Z,21.82
2018-06-03T00:30:35.592Z,22.01
2018-06-03T00:32:13.121Z,22.08
2018-06-03T00:33:49.381Z,22.20
2018-06-03T00:35:26.200Z,22.28
2018-06-03T00:37:03.225Z,22.54
2018-06-03T00:38:39.561Z,22.68
2018-06-03T00:40:15.823Z,22.68
2018-06-03T00:41:52.743Z,22.78
2018-06-03T00:43:29.078Z,22.72
2018-06-03T00:45:05.493Z,22.83
2018-06-03T00:46:41.453Z,22.78
2018-06-03T00:48:18.134Z,22.87
2018-06-03T00:49:55.468Z,22.82
2018-06-03T00:51:31.334Z,22.90
2018-06-03T00:53:08.494Z,23.04
2018-06-03T00:54:45.054Z,23.22
2018-06-03T00:56:37.782Z,23.41
2018-06-03T00:58:13.895Z,23.40
2018-06-03T00:59:50.898Z,23.37
2018-06-03T01:01:27.322Z,23.28
2018-06-03T01:03:04.339Z,23.28
2018-06-03T01:04:40.681Z,23.24
2018-06-03T01:06:17.679Z,23.14
2018-06-03T01:07:54.030Z,23.15
2018-06-03T01:09:30.233Z,23.00
2018-06-03T01:11:07.273Z,23.03
2018-06-03T01:12:44.278Z,23.01
2018-06-03T01:14:20.651Z,23.05
2018-06-03T01:15:57.261Z,23.18
2018-06-03T01:17:33.538Z,23.19
2018-06-03T01:19:10.426Z,23.20
2018-06-03T01:20:47.184Z,23.08
2018-06-03T01:22:23.557Z,23.12
2018-06-03T01:23:59.967Z,23.14
2018-06-03T01:25:36.749Z,23.23
2018-06-03T01:27:13.401Z,23.24
2018-06-03T01:28:50.657Z,23.33
2018-06-03T01:30:28.797Z,23.28
2018-06-03T01:32:06.458Z,23.07
2018-06-03T01:33:42.775Z,22.85
2018-06-03T01:35:19.004Z,22.69
2018-06-03T01:36:55.523Z,22.50
2018-06-03T01:38:32.453Z,22.35
2018-06-03T01:40:09.077Z,22.31
2018-06-03T01:41:45.652Z,22.15
2018-06-03T01:43:22.148Z,22.14
2018-06-03T01:44:58.719Z,22.11
2018-06-03T01:46:35.455Z,22.19
2018-06-03T01:48:11.723Z,22.39
2018-06-03T01:49:48.093Z,22.70
2018-06-03T01:51:25.935Z,22.92
2018-06-03T01:53:02.263Z,22.98
2018-06-03T01:54:38.575Z,23.10
2018-06-03T01:56:14.860Z,23.19
2018-06-03T01:57:51.593Z,22.69
2018-06-03T01:59:27.877Z,22.45
2018-06-03T02:01:06.323Z,22.35
2018-06-03T02:02:43.082Z,22.30
2018-06-03T02:04:19.992Z,22.44
2018-06-03T02:05:56.934Z,22.08
2018-06-03T02:07:33.551Z,21.78
2018-06-03T02:09:10.165Z,21.97
2018-06-03T02:10:47.228Z,22.22
2018-06-03T02:12:23.897Z,22.21
2018-06-03T02:14:01.183Z,22.23
2018-06-03T02:15:37.894Z,22.25
2018-06-03T02:17:15.092Z,22.22
2018-06-03T02:18:51.799Z,22.20
2018-06-03T02:20:28.140Z,22.20
2018-06-03T02:22:05.162Z,22.22
2018-06-03T02:23:41.773Z,22.17
2018-06-03T02:25:18.162Z,22.26
2018-06-03T02:26:54.478Z,22.46
2018-06-03T02:28:31.185Z,22.55
2018-06-03T02:30:08.832Z,22.50
2018-06-03T02:31:45.256Z,22.39
2018-06-03T02:33:21.627Z,22.26
2018-06-03T02:34:58.044Z,22.16
2018-06-03T02:36:34.531Z,21.98
2018-06-03T02:38:12.651Z,21.67
2018-06-03T02:39:48.955Z,21.34
2018-06-03T02:41:25.311Z,21.32
2018-06-03T02:43:02.886Z,21.31
2018-06-03T02:44:39.241Z,21.50
2018-06-03T02:46:16.885Z,21.67
2018-06-03T02:47:53.550Z,21.69
2018-06-03T02:49:30.131Z,21.75
2018-06-03T02:51:07.284Z,21.94
2018-06-03T02:52:43.540Z,22.09
2018-06-03T02:54:19.852Z,22.17
2018-06-03T02:55:56.498Z,22.23
2018-06-03T02:57:32.762Z,22.27
2018-06-03T03:00:49.704Z,22.25
2018-06-03T03:02:26.061Z,22.25
2018-06-03T03:04:02.432Z,22.11
2018-06-03T03:05:38.789Z,22.03
2018-06-03T03:07:15.828Z,21.94
2018-06-03T03:08:52.195Z,21.98
2018-06-03T03:10:28.585Z,21.89
2018-06-03T03:12:05.305Z,21.75
2018-06-03T03:13:42.464Z,21.79
2018-06-03T03:15:18.978Z,22.09
2018-06-03T03:16:56.048Z,22.21
2018-06-03T03:18:32.839Z,22.21
2018-06-03T03:20:09.673Z,22.12
2018-06-03T03:21:46.217Z,21.98
2018-06-03T03:23:22.623Z,21.82
2018-06-03T03:24:59.422Z,21.75
2018-06-03T03:26:36.710Z,21.66
2018-06-03T03:28:13.362Z,21.52
2018-06-03T03:29:50.002Z,21.27
2018-06-03T03:31:26.453Z,21.13
2018-06-03T03:33:03.315Z,21.00
2018-06-03T03:34:39.682Z,20.69
2018-06-03T03:36:16.367Z,20.48
2018-06-03T03:37:53.311Z,20.50
2018-06-03T03:39:30.580Z,20.85
2018-06-03T03:41:09.087Z,21.00
2018-06-03T03:42:45.494Z,21.05
2018-06-03T03:44:21.828Z,21.00
2018-06-03T03:45:59.142Z,20.74
2018-06-03T03:47:35.387Z,20.56
2018-06-03T03:49:11.925Z,20.60
2018-06-03T03:50:48.655Z,20.86
2018-06-03T03:52:25.346Z,21.20
2018-06-03T03:54:02.050Z,21.44
2018-06-03T03:55:38.397Z,21.51
2018-06-03T03:57:15.663Z,21.36
2018-06-03T03:58:52.322Z,21.12
2018-06-03T04:00:28.906Z,21.05
2018-06-03T04:02:05.671Z,20.87
2018-06-03T04:03:42.159Z,20.68
2018-06-03T04:05:18.958Z,20.50
2018-06-03T04:06:55.391Z,20.59
2018-06-03T04:08:36.894Z,20.82
2018-06-03T04:10:13.667Z,20.53
2018-06-03T04:11:50.738Z,20.34
2018-06-03T04:13:27.224Z,20.18
2018-06-03T04:15:04.802Z,19.97
2018-06-03T04:16:41.524Z,19.81
2018-06-03T04:18:18.202Z,19.73
2018-06-03T04:19:54.599Z,19.66
2018-06-03T04:21:31.277Z,19.62
2018-06-03T04:23:08.073Z,19.69
2018-06-03T04:24:44.904Z,19.79
2018-06-03T04:26:21.604Z,20.03
2018-06-03T04:27:57.944Z,20.58
2018-06-03T04:29:34.277Z,21.08
2018-06-03T04:31:11.234Z,21.43
2018-06-03T04:32:47.613Z,21.46
2018-06-03T04:34:24.043Z,21.27
2018-06-03T04:36:00.521Z,21.23
2018-06-03T04:37:37.378Z,21.52
2018-06-03T04:39:14.679Z,21.63
2018-06-03T04:40:51.038Z,21.83
2018-06-03T04:42:27.319Z,22.12
2018-06-03T04:44:04.443Z,22.18
2018-06-03T04:45:41.364Z,22.17
2018-06-03T04:47:18.905Z,22.08
2018-06-03T04:50:30.761Z,22.02
2018-06-03T04:52:07.288Z,22.01
2018-06-03T04:53:44.022Z,22.14
2018-06-03T04:55:20.368Z,22.25
2018-06-03T04:56:57.111Z,22.35
2018-06-03T04:58:33.503Z,22.34
2018-06-03T05:00:10.326Z,22.41
2018-06-03T05:01:47.036Z,22.53
2018-06-03T05:03:23.907Z,22.57
2018-06-03T05:05:00.244Z,22.28
2018-06-03T05:06:36.624Z,21.96
2018-06-03T05:08:13.469Z,21.69
2018-06-03T05:09:50.191Z,21.44
2018-06-03T05:11:26.609Z,21.48
2018-06-03T05:13:03.000Z,21.45
2018-06-03T05:14:39.789Z,21.37
2018-06-03T05:16:16.952Z,21.30
2018-06-03T05:17:53.617Z,21.25
2018-06-03T05:19:30.413Z,21.07
2018-06-03T05:21:07.683Z,20.85
2018-06-03T05:22:44.405Z,20.75
2018-06-03T05:24:20.840Z,20.86
2018-06-03T05:25:57.140Z,20.92
2018-06-03T05:27:33.523Z,21.10
2018-06-03T05:29:10.271Z,21.25
2018-06-03T05:30:46.859Z,21.37
2018-06-03T05:32:23.659Z,21.38
2018-06-03T05:34:00.006Z,21.50
2018-06-03T05:35:36.914Z,21.64
2018-06-03T05:37:13.262Z,21.59
2018-06-03T05:38:49.584Z,21.63
2018-06-03T05:40:26.217Z,21.74
2018-06-03T05:42:02.890Z,21.80
2018-06-03T05:43:40.028Z,21.75
2018-06-03T05:45:17.687Z,21.76
2018-06-03T05:46:54.879Z,21.78
2018-06-03T05:48:34.072Z,21.88
2018-06-03T05:50:10.440Z,22.02
2018-06-03T05:51:46.796Z,22.27
2018-06-03T05:53:23.165Z,22.40
2018-06-03T05:55:00.621Z,22.61
2018-06-03T05:56:36.982Z,22.69
2018-06-03T05:58:13.253Z,22.68
2018-06-03T05:59:49.741Z,22.78
2018-06-03T06:01:26.307Z,22.83
2018-06-03T06:03:02.642Z,22.53
2018-06-03T06:04:39.571Z,22.18
2018-06-03T06:06:16.121Z,22.19
2018-06-03T06:07:52.982Z,22.51
2018-06-03T06:09:29.744Z,23.17
2018-06-03T06:11:06.747Z,23.33
2018-06-03T06:12:43.054Z,23.80
2018-06-03T06:14:20.043Z,24.10
2018-06-03T06:15:56.745Z,24.13
2018-06-03T06:17:33.081Z,23.73
2018-06-03T06:19:09.335Z,23.35
2018-06-03T06:20:46.249Z,22.96
2018-06-03T06:22:23.372Z,22.71
2018-06-03T06:23:59.850Z,22.72
2018-06-03T06:25:36.215Z,22.81
2018-06-03T06:27:13.065Z,22.46
2018-06-03T06:28:49.573Z,22.55
2018-06-03T06:30:25.857Z,23.04
2018-06-03T06:32:02.113Z,23.63
2018-06-03T06:33:39.448Z,23.99
2018-06-03T06:35:15.927Z,24.04
2018-06-03T06:36:52.381Z,23.69
2018-06-03T06:38:30.390Z,23.75
2018-06-03T06:40:08.364Z,23.84
2018-06-03T06:41:45.169Z,23.85
2018-06-03T06:43:21.837Z,23.77
2018-06-03T06:44:58.255Z,23.78
2018-06-03T06:46:34.780Z,23.96
2018-06-03T06:48:11.130Z,24.49
2018-06-03T06:49:47.554Z,24.78
2018-06-03T06:51:24.123Z,24.80
2018-06-03T06:53:00.904Z,24.86
2018-06-03T06:54:37.272Z,24.90
2018-06-03T06:56:13.627Z,24.99
2018-06-03T06:57:50.080Z,25.01
2018-06-03T06:59:28.584Z,25.04
2018-06-03T07:01:05.425Z,25.09
2018-06-03T07:02:43.103Z,25.18
2018-06-03T07:04:19.774Z,25.23
2018-06-03T07:05:56.833Z,25.39
2018-06-03T07:07:34.680Z,25.48
2018-06-03T07:09:13.731Z,25.49
2018-06-03T07:10:50.111Z,25.45
2018-06-03T07:12:27.797Z,25.42
2018-06-03T07:14:04.175Z,25.38
2018-06-03T07:15:41.733Z,25.35
2018-06-03T07:17:18.972Z,25.29
2018-06-03T07:18:55.290Z,25.35
2018-06-03T07:20:32.034Z,25.34
2018-06-03T07:22:08.708Z,25.29
2018-06-03T07:23:45.577Z,25.27
2018-06-03T07:25:22.213Z,25.25
2018-06-03T07:26:58.852Z,24.70
2018-06-03T07:28:35.680Z,24.29
2018-06-03T07:30:13.752Z,24.60
2018-06-03T07:31:50.207Z,24.67
2018-06-03T07:33:27.503Z,24.81
2018-06-03T07:35:07.780Z,24.93
2018-06-03T07:36:45.507Z,25.11
2018-06-03T07:38:22.276Z,25.13
2018-06-03T07:39:59.135Z,25.04
2018-06-03T07:41:37.003Z,25.03
2018-06-03T07:43:13.429Z,24.34
2018-06-03T07:44:49.987Z,23.89
2018-06-03T07:46:27.517Z,23.75
2018-06-03T07:48:08.020Z,24.27
2018-06-03T07:49:45.697Z,24.57
2018-06-03T07:51:22.278Z,24.55
2018-06-03T07:52:59.072Z,24.87
2018-06-03T07:54:35.871Z,25.25
2018-06-03T07:56:12.163Z,25.46
2018-06-03T07:57:48.469Z,25.53
2018-06-03T07:59:24.909Z,25.75
2018-06-03T08:01:02.379Z,25.60
2018-06-03T08:02:38.628Z,25.93
2018-06-03T08:04:14.970Z,26.35
2018-06-03T08:05:51.306Z,26.61
2018-06-03T08:07:28.760Z,26.92
2018-06-03T08:09:06.727Z,26.26
2018-06-03T08:10:46.741Z,26.29
2018-06-03T08:12:23.761Z,26.70
2018-06-03T08:14:00.698Z,26.57
2018-06-03T08:15:38.048Z,26.72
2018-06-03T08:17:14.516Z,26.91
2018-06-03T08:18:51.132Z,26.44
2018-06-03T08:20:28.486Z,26.52
2018-06-03T08:22:05.331Z,26.43
2018-06-03T08:23:43.292Z,26.11
2018-06-03T08:25:19.761Z,25.96
2018-06-03T08:26:56.669Z,25.71
2018-06-03T08:28:33.452Z,25.56
2018-06-03T08:30:10.136Z,25.23
2018-06-03T08:31:48.948Z,25.10
2018-06-03T08:33:25.698Z,25.10
2018-06-03T08:35:09.481Z,25.18
2018-06-03T08:36:46.666Z,25.25
2018-06-03T08:38:23.213Z,25.20
2018-06-03T08:40:00.125Z,25.09
2018-06-03T08:41:36.803Z,24.98
2018-06-03T08:43:13.151Z,24.97
2018-06-03T08:44:49.516Z,24.86
2018-06-03T08:46:26.846Z,24.74
2018-06-03T08:48:03.225Z,24.86
2018-06-03T08:49:39.654Z,25.02
2018-06-03T08:51:16.193Z,25.16
2018-06-03T08:52:52.645Z,25.28
2018-06-03T08:54:29.018Z,25.27
2018-06-03T08:56:05.385Z,25.27
2018-06-03T08:57:41.683Z,25.18
2018-06-03T08:59:18.421Z,25.17
2018-06-03T09:00:55.205Z,25.17
2018-06-03T09:02:31.714Z,25.20
2018-06-03T09:04:08.144Z,25.08
2018-06-03T09:05:45.059Z,24.92
2018-06-03T09:07:24.719Z,24.78
2018-06-03T09:09:01.188Z,24.69
2018-06-03T09:10:37.458Z,24.70
2018-06-03T09:12:14.183Z,24.74
2018-06-03T09:13:50.530Z,24.63
2018-06-03T09:15:26.901Z,24.75
2018-06-03T09:17:04.520Z,24.57
2018-06-03T09:18:42.895Z,24.32
2018-06-03T09:20:19.443Z,24.24
2018-06-03T09:21:55.849Z,24.01
2018-06-03T09:25:14.449Z,24.44
2018-06-03T09:26:50.736Z,24.56
2018-06-03T09:28:27.397Z,24.70
2018-06-03T09:30:05.555Z,24.81
2018-06-03T09:31:42.379Z,24.79
2018-06-03T09:33:19.074Z,24.76
2018-06-03T09:34:56.141Z,24.79
2018-06-03T09:36:33.012Z,24.86
2018-06-03T09:38:09.428Z,24.79
2018-06-03T09:39:45.822Z,24.56
2018-06-03T09:41:22.599Z,24.42
2018-06-03T09:42:59.479Z,24.57
2018-06-03T09:44:35.998Z,24.81
2018-06-03T09:46:12.504Z,24.98
2018-06-03T09:47:48.886Z,24.90
2018-06-03T09:49:25.423Z,24.91
2018-06-03T09:51:01.873Z,25.07
2018-06-03T09:52:38.796Z,25.11
2018-06-03T09:54:15.226Z,25.21
2018-06-03T09:55:51.944Z,25.33
2018-06-03T09:57:28.860Z,25.45
2018-06-03T09:59:08.339Z,25.29
2018-06-03T10:00:44.984Z,25.44
2018-06-03T10:02:22.259Z,25.19
2018-06-03T10:03:58.684Z,24.91
2018-06-03T10:07:24.078Z,25.64
2018-06-03T10:09:01.904Z,25.70
2018-06-03T10:10:39.044Z,25.64
2018-06-03T10:12:15.373Z,25.63
2018-06-03T10:13:51.705Z,25.74
2018-06-03T10:15:28.530Z,25.72
2018-06-03T10:17:04.966Z,25.92
2018-06-03T10:18:43.178Z,26.04
2018-06-03T10:20:19.596Z,25.95
2018-06-03T10:21:56.447Z,26.08
2018-06-03T10:23:32.969Z,26.26
2018-06-03T10:25:09.996Z,25.86
2018-06-03T10:26:45.967Z,25.96
2018-06-03T10:28:22.864Z,26.30
2018-06-03T10:29:58.797Z,26.60
2018-06-03T10:31:35.049Z,26.96
2018-06-03T10:33:11.380Z,27.13
2018-06-03T10:34:48.562Z,26.88
2018-06-03T10:36:24.921Z,26.71
2018-06-03T10:38:00.950Z,26.84
2018-06-03T10:39:38.193Z,27.21
2018-06-03T10:41:18.352Z,27.32
2018-06-03T10:42:54.815Z,26.93
2018-06-03T10:44:31.341Z,26.27
2018-06-03T10:46:07.255Z,25.63
2018-06-03T10:47:44.069Z,25.58
2018-06-03T10:49:20.812Z,25.46
2018-06-03T10:50:57.250Z,25.49
2018-06-03T10:52:33.328Z,25.87
2018-06-03T10:54:10.028Z,26.20
2018-06-03T10:55:46.465Z,26.45
2018-06-03T10:57:22.610Z,26.58
2018-06-03T10:58:58.987Z,26.67
2018-06-03T11:00:36.495Z,26.67
2018-06-03T11:02:13.013Z,26.52
2018-06-03T11:03:49.446Z,26.37
2018-06-03T11:05:26.425Z,26.31
2018-06-03T11:07:03.336Z,26.29
2018-06-03T11:08:41.219Z,26.06
2018-06-03T11:10:19.441Z,26.21
2018-06-03T11:11:55.510Z,26.15
2018-06-03T11:13:32.331Z,25.82
2018-06-03T11:15:08.965Z,25.59
2018-06-03T11:16:45.481Z,25.64
2018-06-03T11:18:22.049Z,25.63
2018-06-03T11:19:58.781Z,25.46
2018-06-03T11:21:36.682Z,25.60
2018-06-03T11:23:17.032Z,25.85
2018-06-03T11:24:53.474Z,26.12
2018-06-03T11:26:29.900Z,26.44
2018-06-03T11:28:06.323Z,26.66
2018-06-03T11:29:42.452Z,26.63
2018-06-03T11:31:32.795Z,26.54
2018-06-03T11:33:09.164Z,26.45
2018-06-03T11:34:45.575Z,26.39
2018-06-03T11:36:22.118Z,26.18
2018-06-03T11:37:58.458Z,26.49
2018-06-03T11:39:35.821Z,26.71
2018-06-03T11:41:12.117Z,26.64
2018-06-03T11:42:48.867Z,26.75
2018-06-03T11:44:25.410Z,26.90
2018-06-03T11:46:01.910Z,27.29
2018-06-03T11:47:40.538Z,27.41
2018-06-03T11:49:17.375Z,27.13
2018-06-03T11:50:53.817Z,27.05
2018-06-03T11:52:30.302Z,27.43
2018-06-03T11:54:06.654Z,27.56
2018-06-03T11:55:43.645Z,27.36
2018-06-03T11:57:20.133Z,27.21
2018-06-03T11:59:06.475Z,27.09
2018-06-03T12:00:43.197Z,26.76
2018-06-03T12:02:20.425Z,26.68
2018-06-03T12:03:56.418Z,26.51
2018-06-03T12:05:32.724Z,26.50
2018-06-03T12:07:09.682Z,26.52
2018-06-03T12:08:46.564Z,26.56
2018-06-03T12:10:23.300Z,26.61
2018-06-03T12:11:59.710Z,26.74
2018-06-03T12:13:36.082Z,26.86
2018-06-03T12:15:14.097Z,26.98
2018-06-03T12:16:50.136Z,27.09
2018-06-03T12:18:26.500Z,27.07
2018-06-03T12:20:02.994Z,27.12
2018-06-03T12:21:40.411Z,26.80
2018-06-03T12:23:16.815Z,26.61
2018-06-03T12:24:53.183Z,26.65
2018-06-03T12:26:29.572Z,26.83
2018-06-03T12:28:08.024Z,26.72
2018-06-03T12:29:44.461Z,26.58
2018-06-03T12:31:23.871Z,26.50
2018-06-03T12:33:00.723Z,26.59
2018-06-03T12:34:37.197Z,26.69
2018-06-03T12:36:14.643Z,26.72
2018-06-03T12:38:23.583Z,26.66
2018-06-03T12:40:00.330Z,26.64
2018-06-03T12:41:37.646Z,26.63
2018-06-03T12:43:14.034Z,26.35
2018-06-03T12:44:50.913Z,26.41
2018-06-03T12:46:27.905Z,26.55
2018-06-03T12:48:04.810Z,26.80
2018-06-03T12:49:44.030Z,26.78
2018-06-03T12:51:20.853Z,26.63
2018-06-03T12:52:58.098Z,26.55
2018-06-03T12:54:34.814Z,26.37
2018-06-03T12:56:11.279Z,26.43
2018-06-03T12:57:47.655Z,26.41
2018-06-03T12:59:24.828Z,25.69
2018-06-03T13:01:01.678Z,25.78
2018-06-03T13:02:37.960Z,26.26
2018-06-03T13:04:14.490Z,26.28
2018-06-03T13:05:50.924Z,26.11
2018-06-03T13:07:28.888Z,26.47
2018-06-03T13:09:07.809Z,26.65
2018-06-03T13:10:55.173Z,26.71
2018-06-03T13:12:35.583Z,26.65
2018-06-03T13:14:12.831Z,26.56
2018-06-03T13:15:49.507Z,26.55
2018-06-03T13:17:26.448Z,26.81
2018-06-03T13:19:05.058Z,26.27
2018-06-03T13:20:42.973Z,26.60
2018-06-03T13:22:19.398Z,26.77
2018-06-03T13:23:57.320Z,27.05
2018-06-03T13:25:35.413Z,27.17
2018-06-03T13:27:11.920Z,26.85
2018-06-03T13:28:49.994Z,26.77
2018-06-03T13:30:29.568Z,26.59
2018-06-03T13:32:06.554Z,26.58
2018-06-03T13:33:44.071Z,26.62
2018-06-03T13:35:21.298Z,26.36
2018-06-03T13:36:59.199Z,26.07
2018-06-03T13:38:37.181Z,26.33
2018-06-03T13:40:14.879Z,26.45
2018-06-03T13:41:52.064Z,26.61
2018-06-03T13:43:29.985Z,26.94
2018-06-03T13:45:09.206Z,26.40
2018-06-03T13:46:50.408Z,26.32
2018-06-03T13:48:26.943Z,26.28
2018-06-03T13:50:03.555Z,26.01
2018-06-03T13:51:40.810Z,25.82
2018-06-03T13:53:17.528Z,26.24
2018-06-03T13:54:56.238Z,26.54
2018-06-03T13:56:32.893Z,26.39
2018-06-03T13:58:09.784Z,26.44
2018-06-03T13:59:47.279Z,26.55
2018-06-03T14:01:23.986Z,26.52
2018-06-03T14:03:00.520Z,26.46
2018-06-03T14:04:37.476Z,26.40
2018-06-03T14:06:14.098Z,26.06
2018-06-03T14:07:50.573Z,25.83
2018-06-03T14:09:27.237Z,25.67
2018-06-03T14:11:04.315Z,25.70
2018-06-03T14:12:40.750Z,26.25
2018-06-03T14:14:17.824Z,26.53
2018-06-03T14:15:55.029Z,26.74
2018-06-03T14:17:32.517Z,26.88
2018-06-03T14:19:09.840Z,26.69
2018-06-03T14:20:49.145Z,26.77
2018-06-03T14:22:26.486Z,26.71
2018-06-03T14:24:03.452Z,26.28
2018-06-03T14:25:41.436Z,26.48
2018-06-03T14:27:17.965Z,26.66
2018-06-03T14:28:54.607Z,26.76
2018-06-03T14:30:31.885Z,26.66
2018-06-03T14:32:08.487Z,26.71
2018-06-03T14:33:45.628Z,26.60
2018-06-03T14:35:22.371Z,26.63
2018-06-03T14:36:59.736Z,26.61
2018-06-03T14:38:36.311Z,26.78
2018-06-03T14:40:12.855Z,26.72
2018-06-03T14:41:49.441Z,26.83
2018-06-03T14:43:26.532Z,26.87
2018-06-03T14:45:04.962Z,26.90
2018-06-03T14:46:41.700Z,26.83
2018-06-03T14:48:20.337Z,26.84
2018-06-03T14:50:00.852Z,26.88
2018-06-03T14:51:37.392Z,26.90
2018-06-03T14:53:14.324Z,26.98
2018-06-03T14:54:50.990Z,26.90
2018-06-03T14:56:28.070Z,26.77
2018-06-03T14:58:05.344Z,26.74
2018-06-03T14:59:41.773Z,26.70
2018-06-03T15:01:19.195Z,26.83
2018-06-03T15:03:00.046Z,26.87
2018-06-03T15:04:46.828Z,26.89
2018-06-03T15:06:28.865Z,26.94
2018-06-03T15:08:07.066Z,27.16
2018-06-03T15:09:44.436Z,27.14
2018-06-03T15:11:20.798Z,26.92
2018-06-03T15:13:05.243Z,26.76
2018-06-03T15:14:42.682Z,26.76
2018-06-03T15:16:19.630Z,26.79
2018-06-03T15:17:56.747Z,26.68
2018-06-03T15:19:33.786Z,26.83
2018-06-03T15:21:12.211Z,27.09
2018-06-03T15:22:50.073Z,27.22
2018-06-03T15:24:26.823Z,26.72
2018-06-03T15:26:04.321Z,26.24
2018-06-03T15:27:40.819Z,26.30
2018-06-03T15:29:18.912Z,26.69
2018-06-03T15:30:55.225Z,26.62
2018-06-03T15:32:32.206Z,26.56
2018-06-03T15:34:09.254Z,26.81
2018-06-03T15:35:46.359Z,26.85
2018-06-03T15:37:22.816Z,26.94
2018-06-03T15:38:59.276Z,27.01
2018-06-03T15:40:38.471Z,27.05
2018-06-03T15:42:15.573Z,27.14
2018-06-03T15:43:52.000Z,27.09
2018-06-03T15:45:29.201Z,27.04
2018-06-03T15:47:05.921Z,26.97
2018-06-03T15:48:43.262Z,26.63
2018-06-03T15:50:19.790Z,25.86
2018-06-03T15:51:56.344Z,25.76
2018-06-03T15:53:33.763Z,26.07
2018-06-03T15:55:10.254Z,26.21
2018-06-03T15:56:47.445Z,26.11
2018-06-03T15:58:24.088Z,26.06
2018-06-03T16:00:01.777Z,26.21
2018-06-03T16:01:38.736Z,26.24
2018-06-03T16:03:15.315Z,26.31
2018-06-03T16:04:51.842Z,26.40
2018-06-03T16:06:28.947Z,25.90
2018-06-03T16:08:06.121Z,25.78
2018-06-03T16:09:43.363Z,25.97
2018-06-03T16:11:19.783Z,26.22
2018-06-03T16:12:56.250Z,26.19
2018-06-03T16:14:32.745Z,26.35
2018-06-03T16:16:09.257Z,26.00
2018-06-03T16:17:50.445Z,25.53
2018-06-03T16:19:35.425Z,25.77
2018-06-03T16:21:15.405Z,25.78
2018-06-03T16:22:51.984Z,25.68
2018-06-03T16:24:28.631Z,25.48
2018-06-03T16:26:10.101Z,25.80
2018-06-03T16:27:49.567Z,25.75
2018-06-03T16:29:25.959Z,25.58
2018-06-03T16:31:02.556Z,25.65
2018-06-03T16:32:39.558Z,25.60
2018-06-03T16:34:15.968Z,25.60
2018-06-03T16:35:54.916Z,25.59
2018-06-03T16:37:31.804Z,25.86
2018-06-03T16:39:10.573Z,26.25
2018-06-03T16:40:48.035Z,26.31
2018-06-03T16:42:25.694Z,26.23
2018-06-03T16:44:02.147Z,26.14
2018-06-03T16:45:39.174Z,26.05
2018-06-03T16:47:15.656Z,25.79
2018-06-03T16:48:52.205Z,25.77
2018-06-03T16:50:28.862Z,25.67
2018-06-03T16:52:05.911Z,25.93
2018-06-03T16:53:43.229Z,25.93
2018-06-03T16:55:19.551Z,25.63
2018-06-03T16:56:55.752Z,25.87
2018-06-03T16:58:33.583Z,26.15
2018-06-03T17:00:11.266Z,26.14
2018-06-03T17:01:48.923Z,26.37
2018-06-03T17:03:25.552Z,26.50
2018-06-03T17:05:02.178Z,26.66
2018-06-03T17:06:38.653Z,26.78
2018-06-03T17:08:15.121Z,26.77
2018-06-03T17:09:51.621Z,26.23
2018-06-03T17:11:28.602Z,25.81
2018-06-03T17:13:04.963Z,25.81
2018-06-03T17:14:41.483Z,26.13
2018-06-03T17:16:18.194Z,26.10
2018-06-03T17:17:55.946Z,26.19
2018-06-03T17:19:34.563Z,26.22
2018-06-03T17:21:10.994Z,26.04
2018-06-03T17:22:47.375Z,26.19
2018-06-03T17:24:24.268Z,26.32
2018-06-03T17:26:00.614Z,26.13
2018-06-03T17:27:37.093Z,25.94
2018-06-03T17:29:14.164Z,26.10
2018-06-03T17:30:51.777Z,26.29
2018-06-03T17:32:29.758Z,26.40
2018-06-03T17:34:06.602Z,26.42
2018-06-03T17:35:43.132Z,26.45
2018-06-03T17:37:20.022Z,26.45
2018-06-03T17:38:56.357Z,26.00
2018-06-03T17:40:33.105Z,26.14
2018-06-03T17:42:09.520Z,26.32
2018-06-03T17:43:46.554Z,26.29
2018-06-03T17:45:23.283Z,26.28
2018-06-03T17:46:59.610Z,26.24
2018-06-03T17:48:36.013Z,25.94
2018-06-03T17:50:12.656Z,25.87
2018-06-03T17:51:49.012Z,25.93
2018-06-03T17:53:25.527Z,25.99
2018-06-03T17:55:01.992Z,26.33
2018-06-03T17:56:42.985Z,26.55
2018-06-03T17:58:19.365Z,26.51
2018-06-03T17:59:55.744Z,26.52
2018-06-03T18:01:36.566Z,26.57
2018-06-03T18:03:13.424Z,26.50
2018-06-03T18:04:49.892Z,26.07
2018-06-03T18:06:27.035Z,25.68
2018-06-03T18:08:03.363Z,25.34
2018-06-03T18:09:41.078Z,25.21
2018-06-03T18:11:17.456Z,25.21
2018-06-03T18:12:54.518Z,25.53
2018-06-03T18:14:31.567Z,25.30
2018-06-03T18:16:09.040Z,25.45
2018-06-03T18:17:45.499Z,25.21
2018-06-03T18:19:21.795Z,25.07
2018-06-03T18:20:58.974Z,25.20
2018-06-03T18:22:36.824Z,25.49
2018-06-03T18:24:13.414Z,25.52
2018-06-03T18:26:07.817Z,25.33
2018-06-03T18:28:15.583Z,25.40
2018-06-03T18:29:51.828Z,25.77
2018-06-03T18:31:43.074Z,26.09
2018-06-03T18:33:20.870Z,26.21
2018-06-03T18:34:57.336Z,26.03
2018-06-03T18:36:34.077Z,25.98
2018-06-03T18:38:10.573Z,26.04
2018-06-03T18:39:47.973Z,26.24
2018-06-03T18:41:24.369Z,26.00
2018-06-03T18:43:00.736Z,25.93
2018-06-03T18:44:37.188Z,26.24
2018-06-03T18:46:14.233Z,26.41
2018-06-03T18:47:50.759Z,26.23
2018-06-03T18:49:27.204Z,26.10
2018-06-03T18:51:03.714Z,25.75
2018-06-03T18:52:45.339Z,25.56
2018-06-03T18:54:31.955Z,25.51
2018-06-03T18:56:08.682Z,25.62
2018-06-03T18:57:45.986Z,25.69
2018-06-03T18:59:22.496Z,25.50
2018-06-03T19:00:59.235Z,25.23
2018-06-03T19:02:35.661Z,25.17
2018-06-03T19:04:12.081Z,24.99
2018-06-03T19:05:48.616Z,25.02
2018-06-03T19:07:25.107Z,25.25
2018-06-03T19:09:01.789Z,25.62
2018-06-03T19:10:38.706Z,25.66
2018-06-03T19:12:15.118Z,25.71
2018-06-03T19:13:51.967Z,25.48
2018-06-03T19:15:28.940Z,25.72
2018-06-03T19:17:06.005Z,25.43
2018-06-03T19:18:42.555Z,25.17
2018-06-03T19:20:20.298Z,25.01
2018-06-03T19:21:56.716Z,24.93
2018-06-03T19:23:33.517Z,24.99
2018-06-03T19:25:16.279Z,25.03
2018-06-03T19:26:55.736Z,25.18
2018-06-03T19:28:32.463Z,25.22
2018-06-03T19:30:09.646Z,25.38
2018-06-03T19:31:48.022Z,25.66
2018-06-03T19:33:27.496Z,25.64
2018-06-03T19:35:10.332Z,25.70
2018-06-03T19:36:48.719Z,26.04
2018-06-03T19:38:25.193Z,26.05
2018-06-03T19:40:01.631Z,26.21
2018-06-03T19:41:38.573Z,26.48
2018-06-03T19:43:15.501Z,26.74
2018-06-03T19:44:55.020Z,26.64
2018-06-03T19:46:33.072Z,26.09
2018-06-03T19:48:10.403Z,26.01
2018-06-03T19:49:47.782Z,26.16
2018-06-03T19:51:24.291Z,26.28
2018-06-03T19:53:00.976Z,26.53
2018-06-03T19:54:39.283Z,26.51
2018-06-03T19:56:15.991Z,26.46
2018-06-03T19:57:52.546Z,26.57
2018-06-03T19:59:32.107Z,26.60
2018-06-03T20:01:10.671Z,26.61
2018-06-03T20:02:47.346Z,26.52
2018-06-03T20:04:23.996Z,26.48
2018-06-03T20:06:40.388Z,26.53
2018-06-03T20:08:17.469Z,26.37
2018-06-03T20:09:55.480Z,26.14
2018-06-03T20:11:32.141Z,26.07
2018-06-03T20:13:10.923Z,26.20
2018-06-03T20:14:53.158Z,26.39
2018-06-03T20:16:33.416Z,26.38
2018-06-03T20:18:18.168Z,26.36
2018-06-03T20:19:57.456Z,26.31
2018-06-03T20:21:38.646Z,26.28
2018-06-03T20:23:16.792Z,26.28
2018-06-03T20:24:55.592Z,26.19
2018-06-03T20:26:32.548Z,26.13
2018-06-03T20:28:10.949Z,26.20
2018-06-03T20:29:59.419Z,26.08
2018-06-03T20:31:44.602Z,25.88
2018-06-03T20:33:24.350Z,25.76
2018-06-03T20:35:06.174Z,25.50
2018-06-03T20:36:45.572Z,25.28
2018-06-03T20:38:22.188Z,25.32
2018-06-03T20:40:02.488Z,25.19
2018-06-03T20:41:40.683Z,25.29
2018-06-03T20:43:17.626Z,25.17
2018-06-03T20:44:56.376Z,25.30
2018-06-03T20:46:37.631Z,25.54
2018-06-03T20:48:20.173Z,25.86
2018-06-03T20:49:58.152Z,25.93
2018-06-03T20:51:35.652Z,25.86
2018-06-03T20:53:15.090Z,25.57
2018-06-03T20:54:56.089Z,25.35
2018-06-03T20:56:39.651Z,25.14
2018-06-03T20:58:21.359Z,25.13
2018-06-03T21:00:01.985Z,24.79
2018-06-03T21:01:41.656Z,24.78